createdAt,value
2023-12-02T00:00:10.971Z,325.33
2023-12-02T00:05:18.271Z,392.60
2023-12-02T00:10:25.514Z,309.43
2023-12-02T00:15:32.681Z,311.30
2023-12-02T00:20:39.863Z,227.67
2023-12-02T00:25:46.942Z,320.83
2023-12-02T00:30:54.303Z,29.40
2023-12-02T00:36:01.361Z,147.30
2023-12-02T00:41:13.324Z,139.33
2023-12-02T00:46:20.256Z,53.10
2023-12-02T00:51:27.242Z,23.23
2023-12-02T00:56:35.144Z,19.10
2023-12-02T01:01:42.625Z,28.63
2023-12-02T01:06:49.951Z,96.90
2023-12-02T01:11:57.233Z,123.10
2023-12-02T01:17:04.996Z,136.77
2023-12-02T01:22:12.393Z,31.23
2023-12-02T01:27:19.419Z,33.10
2023-12-02T01:32:26.757Z,72.93
2023-12-02T01:37:33.868Z,64.30
2023-12-02T01:42:41.763Z,31.73
2023-12-02T01:47:50.266Z,70.33
2023-12-02T01:52:57.430Z,60.30
2023-12-02T01:58:04.633Z,16.17
2023-12-02T02:03:12.512Z,35.17
2023-12-02T02:08:19.608Z,22.33
2023-12-02T02:13:27.521Z,222.53
2023-12-02T02:18:36.423Z,177.47
2023-12-02T02:23:43.544Z,319.07
2023-12-02T02:28:50.434Z,322.23
2023-12-02T02:33:57.421Z,440.83
2023-12-02T02:39:04.725Z,224.43
2023-12-02T02:44:12.497Z,402.40
2023-12-02T02:49:19.596Z,142.73
2023-12-02T02:54:27.150Z,560.77
2023-12-02T02:59:34.052Z,548.23
2023-12-02T03:04:40.930Z,598.37
2023-12-02T03:09:48.056Z,638.73
2023-12-02T03:14:56.644Z,537.23
2023-12-02T03:20:04.090Z,693.40
2023-12-02T03:25:13.267Z,614.43
2023-12-02T03:30:20.237Z,597.20
2023-12-02T03:35:27.211Z,568.20
2023-12-02T03:40:34.418Z,389.27
2023-12-02T03:45:41.796Z,332.17
2023-12-02T03:50:49.288Z,302.20
2023-12-02T03:55:56.721Z,167.67
2023-12-02T04:01:04.129Z,138.60
2023-12-02T04:06:12.039Z,93.20
2023-12-02T04:11:19.184Z,120.10
2023-12-02T04:16:26.657Z,81.90
2023-12-02T04:21:33.621Z,159.23
2023-12-02T04:26:40.705Z,41.83
2023-12-02T04:31:47.869Z,15.30
2023-12-02T04:36:54.946Z,20.73
2023-12-02T04:42:01.972Z,188.90
2023-12-02T04:47:09.192Z,29.20
2023-12-02T04:52:15.975Z,7.20
2023-12-02T04:57:22.876Z,24.53
2023-12-02T05:02:29.690Z,167.60
2023-12-02T05:07:36.596Z,4.07
2023-12-02T05:12:43.657Z,3.43
2023-12-02T05:17:50.896Z,116.60
2023-12-02T05:22:58.147Z,131.27
2023-12-02T05:28:05.593Z,171.63
2023-12-02T05:33:13.660Z,350.83
2023-12-02T05:38:20.674Z,224.80
2023-12-02T05:43:27.394Z,289.57
2023-12-02T05:48:34.439Z,264.33
2023-12-02T05:53:44.274Z,264.07
2023-12-02T05:58:51.240Z,272.70
2023-12-02T06:03:58.205Z,372.23
2023-12-02T06:09:05.654Z,250.70
2023-12-02T06:14:12.593Z,239.83
2023-12-02T06:19:21.105Z,142.10
2023-12-02T06:24:28.128Z,86.20
2023-12-02T06:29:35.024Z,95.80
2023-12-02T06:34:42.172Z,126.17
2023-12-02T06:39:49.053Z,55.43
2023-12-02T06:44:58.165Z,260.80
2023-12-02T06:50:06.834Z,115.90
2023-12-02T07:00:33.739Z,2.23
2023-12-02T07:05:43.333Z,1.67
2023-12-02T07:10:51.192Z,8.10
2023-12-02T07:15:58.563Z,1.30
2023-12-02T07:21:06.028Z,3.20
2023-12-02T07:26:13.359Z,110.73
2023-12-02T07:31:21.073Z,11.73
2023-12-02T07:36:28.246Z,2.30
2023-12-02T07:41:35.334Z,3.53
2023-12-02T07:46:43.386Z,1.90
2023-12-02T07:51:50.491Z,9.30
2023-12-02T07:56:57.311Z,2.60
2023-12-02T08:02:04.250Z,26.17
2023-12-02T08:07:11.251Z,6.73
2023-12-02T08:12:18.241Z,9.10
2023-12-02T08:17:25.306Z,18.53
2023-12-02T08:22:32.989Z,13.57
2023-12-02T08:27:39.894Z,2.23
2023-12-02T08:32:47.129Z,7.00
2023-12-02T08:37:53.937Z,2.43
2023-12-02T08:43:07.300Z,1.03
2023-12-02T08:48:14.178Z,1.82
2023-12-02T08:53:21.061Z,1.80
2023-12-02T08:58:29.054Z,1.73
2023-12-02T09:03:37.493Z,3.63
2023-12-02T09:08:44.351Z,0.80
2023-12-02T09:13:52.185Z,5.67
2023-12-02T09:19:00.286Z,1.30
2023-12-02T09:24:11.793Z,0.93
2023-12-02T09:29:18.560Z,1.30
2023-12-02T09:34:44.627Z,67.13
2023-12-02T09:40:25.727Z,19.53
2023-12-02T09:45:37.002Z,7.13
2023-12-02T09:50:57.265Z,1.50
2023-12-02T09:56:22.979Z,20.60
2023-12-02T10:01:46.313Z,1.87
2023-12-02T10:07:18.409Z,3.37
2023-12-02T10:12:39.541Z,1.20
2023-12-02T10:17:59.012Z,6.60
2023-12-02T10:23:30.050Z,4.40
2023-12-02T10:28:59.560Z,0.70
2023-12-02T10:34:33.462Z,0.30
2023-12-02T10:39:47.460Z,0.20
2023-12-02T10:45:01.422Z,0.40
2023-12-02T10:50:13.297Z,0.20
2023-12-02T10:55:21.035Z,11.77
2023-12-02T11:00:30.294Z,4.53
2023-12-02T11:05:41.631Z,1.00
2023-12-02T11:10:58.028Z,0.20
2023-12-02T11:16:44.241Z,1.50
2023-12-02T11:22:25.559Z,0.60
2023-12-02T11:28:18.424Z,4.07
2023-12-02T11:33:59.529Z,6.60
2023-12-02T11:39:20.144Z,44.93
2023-12-02T11:44:43.046Z,14.00
2023-12-02T11:50:21.390Z,8.60
2023-12-02T11:56:00.372Z,0.60
2023-12-02T12:01:32.686Z,0.87
2023-12-02T12:07:34.769Z,3.40
2023-12-02T12:12:45.619Z,1.73
2023-12-02T12:17:52.754Z,3.07
2023-12-02T12:23:01.364Z,2.37
2023-12-02T12:28:08.906Z,2.13
2023-12-02T12:33:22.967Z,1.57
2023-12-02T12:38:31.442Z,15.17
2023-12-02T12:43:39.922Z,10.43
2023-12-02T12:48:55.735Z,7.23
2023-12-02T12:54:04.821Z,1.67
2023-12-02T12:59:18.976Z,1.33
2023-12-02T13:04:59.199Z,14.43
2023-12-02T13:10:09.824Z,15.93
2023-12-02T13:15:22.947Z,3.53
2023-12-02T13:20:31.758Z,3.15
2023-12-02T13:25:41.527Z,3.77
2023-12-02T13:30:49.602Z,3.00
2023-12-02T13:36:24.661Z,2.43
2023-12-02T13:41:35.962Z,39.17
2023-12-02T13:47:08.412Z,5.33
2023-12-02T13:52:41.850Z,8.37
2023-12-02T13:58:22.757Z,4.57
2023-12-02T14:03:43.383Z,4.00
2023-12-02T14:08:59.754Z,3.87
2023-12-02T14:14:42.730Z,2.97
2023-12-02T14:20:02.758Z,4.63
2023-12-02T14:25:29.208Z,5.87
2023-12-02T14:31:01.353Z,3.10
2023-12-02T14:36:33.472Z,3.00
2023-12-02T14:41:56.528Z,3.17
2023-12-02T14:47:10.412Z,2.97
2023-12-02T14:52:23.597Z,34.27
2023-12-02T14:57:32.135Z,2.60
2023-12-02T15:02:53.273Z,3.63
2023-12-02T15:08:00.860Z,3.03
2023-12-02T15:13:09.146Z,30.33
2023-12-02T15:18:20.562Z,4.10
2023-12-02T15:23:39.855Z,3.47
2023-12-02T15:28:52.172Z,4.13
2023-12-02T15:34:00.366Z,3.20
2023-12-02T15:39:08.299Z,2.90
2023-12-02T15:44:15.223Z,3.30
2023-12-02T15:49:26.789Z,3.53
2023-12-02T15:54:35.787Z,4.03
2023-12-02T15:59:43.699Z,3.50
2023-12-02T16:04:50.530Z,5.30
2023-12-02T16:09:57.676Z,6.33
2023-12-02T16:15:07.234Z,5.40
2023-12-02T16:20:15.757Z,5.53
2023-12-02T16:25:23.301Z,10.03
2023-12-02T16:30:30.282Z,4.67
2023-12-02T16:35:38.676Z,23.50
2023-12-02T16:40:53.945Z,4.60
2023-12-02T16:46:06.731Z,4.37
2023-12-02T16:51:14.116Z,4.80
2023-12-02T16:56:22.301Z,5.07
2023-12-02T17:01:39.425Z,4.93
2023-12-02T17:06:46.269Z,5.90
2023-12-02T17:11:53.183Z,8.43
2023-12-02T17:17:02.314Z,5.23
2023-12-02T17:22:12.715Z,5.47
2023-12-02T17:27:42.922Z,6.10
2023-12-02T17:32:49.725Z,5.03
2023-12-02T17:37:56.483Z,6.23
2023-12-02T17:43:04.142Z,5.83
2023-12-02T17:48:11.020Z,9.60
2023-12-02T17:53:20.197Z,21.83
2023-12-02T17:58:26.351Z,14.93
2023-12-02T18:03:34.057Z,25.80
2023-12-02T18:08:40.781Z,110.73
2023-12-02T18:13:47.597Z,26.10
2023-12-02T18:18:57.346Z,11.93
2023-12-02T18:24:04.301Z,12.77
2023-12-02T18:29:11.285Z,15.07
2023-12-02T18:34:18.200Z,11.50
2023-12-02T18:39:25.232Z,13.43
2023-12-02T18:44:33.573Z,8.70
2023-12-02T18:49:40.501Z,7.10
2023-12-02T18:54:47.484Z,12.20
2023-12-02T18:59:55.667Z,6.63
2023-12-02T19:05:03.085Z,7.80
2023-12-02T19:10:11.642Z,29.90
2023-12-02T19:15:18.676Z,29.00
2023-12-02T19:20:25.426Z,18.87
2023-12-02T19:25:34.670Z,9.33
2023-12-02T19:30:41.601Z,20.23
2023-12-02T19:35:48.452Z,10.87
2023-12-02T19:40:55.705Z,7.57
2023-12-02T19:46:02.864Z,7.37
2023-12-02T19:51:10.116Z,6.13
2023-12-02T19:56:16.994Z,5.07
2023-12-02T20:01:24.151Z,5.87
2023-12-02T20:06:31.552Z,15.97
2023-12-02T20:11:44.978Z,4.67
2023-12-02T20:16:47.904Z,6.07
2023-12-02T20:21:54.990Z,5.10
2023-12-02T20:27:01.907Z,6.40
2023-12-02T20:32:09.607Z,6.73
2023-12-02T20:37:18.098Z,5.70
2023-12-02T20:42:25.626Z,5.80
2023-12-02T20:47:33.014Z,5.73
2023-12-02T20:52:39.867Z,9.77
2023-12-02T20:57:47.143Z,6.83
2023-12-02T21:02:53.933Z,5.50
2023-12-02T21:08:00.980Z,7.33
2023-12-02T21:13:08.596Z,6.67
2023-12-02T21:18:16.621Z,7.53
2023-12-02T21:23:23.588Z,5.70
2023-12-02T21:28:30.377Z,6.00
2023-12-02T21:33:38.988Z,5.43
2023-12-02T21:38:51.741Z,6.37
2023-12-02T21:44:00.209Z,4.67
2023-12-02T21:49:16.129Z,5.90
2023-12-02T21:54:24.111Z,5.70
2023-12-02T21:59:31.666Z,8.33
2023-12-02T22:04:42.784Z,6.90
2023-12-02T22:09:50.081Z,4.83
2023-12-02T22:15:02.054Z,6.27
2023-12-02T22:20:11.036Z,6.23
2023-12-02T22:25:21.795Z,4.87
2023-12-02T22:30:29.783Z,8.37
2023-12-02T22:36:01.632Z,5.53
2023-12-02T22:41:11.119Z,5.00
2023-12-02T22:46:23.367Z,6.20
2023-12-02T22:51:38.525Z,5.10
2023-12-02T22:56:47.050Z,5.53
2023-12-02T23:01:54.904Z,5.43
2023-12-02T23:07:02.116Z,4.70
2023-12-02T23:12:11.279Z,3.73
2023-12-02T23:17:22.756Z,4.87
2023-12-02T23:22:30.832Z,3.57
2023-12-02T23:27:48.191Z,4.23
2023-12-02T23:32:47.089Z,4.50
2023-12-02T23:37:55.765Z,4.33
2023-12-02T23:43:04.265Z,3.30
2023-12-02T23:48:12.412Z,3.70
2023-12-02T23:53:19.551Z,4.07
2023-12-02T23:58:27.209Z,4.10
